createdAt,value
2023-02-16T00:02:00.469Z,34.78
2023-02-16T00:04:29.383Z,40.33
2023-02-16T00:06:57.214Z,45.10
2023-02-16T00:09:24.979Z,40.10
2023-02-16T00:12:11.786Z,34.33
2023-02-16T00:14:39.905Z,37.35
2023-02-16T00:17:07.443Z,38.28
2023-02-16T00:19:39.439Z,53.33
2023-02-16T00:22:07.623Z,44.13
2023-02-16T00:24:35.145Z,43.50
2023-02-16T00:27:02.258Z,38.55
2023-02-16T00:29:34.786Z,50.25
2023-02-16T00:32:03.159Z,44.97
2023-02-16T00:34:30.354Z,46.72
2023-02-16T00:36:58.883Z,49.88
2023-02-16T00:39:26.891Z,47.45
2023-02-16T00:41:55.798Z,52.28
2023-02-16T00:44:33.976Z,55.90
2023-02-16T00:47:19.871Z,55.72
2023-02-16T00:49:48.039Z,55.25
2023-02-16T00:52:21.122Z,57.55
2023-02-16T00:54:48.604Z,48.28
2023-02-16T00:57:18.261Z,45.22
2023-02-16T00:59:46.088Z,48.70
2023-02-16T01:02:13.298Z,48.33
2023-02-16T01:04:40.571Z,53.83
2023-02-16T01:07:30.696Z,57.42
2023-02-16T01:10:17.086Z,58.50
2023-02-16T01:12:44.241Z,58.63
2023-02-16T01:15:13.678Z,62.78
2023-02-16T01:17:41.311Z,61.22
2023-02-16T01:20:15.500Z,57.22
2023-02-16T01:22:42.707Z,56.03
2023-02-16T01:25:09.903Z,48.45
2023-02-16T01:27:37.624Z,48.78
2023-02-16T01:30:05.716Z,49.92
2023-02-16T01:32:33.406Z,42.20
2023-02-16T01:35:00.680Z,39.55
2023-02-16T01:37:27.831Z,38.03
2023-02-16T01:39:55.077Z,45.28
2023-02-16T01:43:00.681Z,38.83
2023-02-16T01:45:31.101Z,45.00
2023-02-16T01:48:03.030Z,48.40
2023-02-16T01:50:39.201Z,48.58
2023-02-16T01:53:25.251Z,46.67
2023-02-16T01:55:56.414Z,54.45
2023-02-16T01:58:35.007Z,52.33
2023-02-16T02:01:02.553Z,59.75
2023-02-16T02:03:50.477Z,58.70
2023-02-16T02:06:20.451Z,63.30
2023-02-16T02:08:50.212Z,60.03
2023-02-16T02:11:27.627Z,61.75
2023-02-16T02:14:08.208Z,58.10
2023-02-16T02:16:35.579Z,60.38
2023-02-16T02:19:02.793Z,55.95
2023-02-16T02:21:51.367Z,52.25
2023-02-16T02:24:37.573Z,40.20
2023-02-16T02:27:25.094Z,47.05
2023-02-16T02:30:15.696Z,45.97
2023-02-16T02:32:54.668Z,37.45
2023-02-16T02:35:43.402Z,41.20
2023-02-16T02:38:17.686Z,36.03
2023-02-16T02:40:57.403Z,37.45
2023-02-16T02:43:39.542Z,37.67
2023-02-16T02:46:12.521Z,36.22
2023-02-16T02:48:39.756Z,31.77
2023-02-16T02:51:28.704Z,37.80
2023-02-16T02:54:17.538Z,35.83
2023-02-16T02:57:06.790Z,33.03
2023-02-16T02:59:55.084Z,33.58
2023-02-16T03:02:24.863Z,35.22
2023-02-16T03:04:53.386Z,35.00
2023-02-16T03:07:43.192Z,33.75
2023-02-16T03:10:29.500Z,33.03
2023-02-16T03:12:57.299Z,33.17
2023-02-16T03:15:25.607Z,30.63
2023-02-16T03:18:14.770Z,32.60
2023-02-16T03:21:01.649Z,35.03
2023-02-16T03:23:48.912Z,32.85
2023-02-16T03:26:35.788Z,31.77
2023-02-16T03:29:18.148Z,33.53
2023-02-16T03:31:45.865Z,32.55
2023-02-16T03:34:13.717Z,28.67
2023-02-16T03:36:44.151Z,30.80
2023-02-16T03:39:11.862Z,28.38
2023-02-16T03:41:50.741Z,28.70
2023-02-16T03:44:18.500Z,28.73
2023-02-16T03:46:45.968Z,30.10
2023-02-16T03:49:13.117Z,37.72
2023-02-16T03:51:40.332Z,37.42
2023-02-16T03:54:07.583Z,32.33
2023-02-16T03:56:34.800Z,33.70
2023-02-16T03:59:02.046Z,36.03
2023-02-16T04:01:29.833Z,35.88
2023-02-16T04:03:57.031Z,38.85
2023-02-16T04:06:24.206Z,35.20
2023-02-16T04:08:51.372Z,32.55
2023-02-16T04:11:37.355Z,33.85
2023-02-16T04:14:04.599Z,34.90
2023-02-16T04:16:31.868Z,35.95
2023-02-16T04:18:59.203Z,39.63
2023-02-16T04:21:28.332Z,32.63
2023-02-16T04:23:55.506Z,36.05
2023-02-16T04:26:22.638Z,35.83
2023-02-16T04:28:50.014Z,35.55
2023-02-16T04:31:17.276Z,35.33
2023-02-16T04:33:44.545Z,33.95
2023-02-16T04:36:11.807Z,35.67
2023-02-16T04:38:39.008Z,39.65
2023-02-16T04:41:06.307Z,35.28
2023-02-16T04:43:33.942Z,36.78
2023-02-16T04:46:01.252Z,38.40
2023-02-16T04:48:28.450Z,35.55
2023-02-16T04:50:55.773Z,36.42
2023-02-16T04:53:22.951Z,35.33
2023-02-16T04:55:50.571Z,36.10
2023-02-16T04:58:17.760Z,34.20
2023-02-16T05:00:44.991Z,31.67
2023-02-16T05:03:12.275Z,36.10
2023-02-16T05:05:39.483Z,34.05
2023-02-16T05:08:06.775Z,36.05
2023-02-16T05:10:34.086Z,38.90
2023-02-16T05:13:20.221Z,38.08
2023-02-16T05:15:47.441Z,37.30
2023-02-16T05:18:14.635Z,39.90
2023-02-16T05:21:00.789Z,38.95
2023-02-16T05:23:29.198Z,35.22
2023-02-16T05:25:56.564Z,45.97
2023-02-16T05:28:23.881Z,43.35
2023-02-16T05:30:51.134Z,35.08
2023-02-16T05:33:18.499Z,41.97
2023-02-16T05:35:45.914Z,42.58
2023-02-16T05:38:13.105Z,44.35
2023-02-16T05:40:40.265Z,44.67
2023-02-16T05:43:07.460Z,42.45
2023-02-16T05:45:34.887Z,44.30
2023-02-16T05:48:02.079Z,40.95
2023-02-16T05:50:29.368Z,41.03
2023-02-16T05:52:56.860Z,40.10
2023-02-16T05:55:24.237Z,39.13
2023-02-16T05:57:51.511Z,48.60
2023-02-16T06:00:18.906Z,51.25
2023-02-16T06:02:46.275Z,44.53
2023-02-16T06:05:13.897Z,47.60
2023-02-16T06:07:41.244Z,44.25
2023-02-16T06:10:08.656Z,45.72
2023-02-16T06:12:35.895Z,46.33
2023-02-16T06:15:03.461Z,59.63
2023-02-16T06:17:30.907Z,52.30
2023-02-16T06:19:58.199Z,41.22
2023-02-16T06:22:28.099Z,51.47
2023-02-16T06:24:55.409Z,56.80
2023-02-16T06:27:22.882Z,60.25
2023-02-16T06:29:50.254Z,60.42
2023-02-16T06:32:18.417Z,53.05
2023-02-16T06:34:46.051Z,62.78
2023-02-16T06:37:13.308Z,61.78
2023-02-16T06:39:40.517Z,58.40
2023-02-16T06:42:07.683Z,53.70
2023-02-16T06:44:34.985Z,61.40
2023-02-16T06:47:02.481Z,70.25
2023-02-16T06:49:30.472Z,74.22
2023-02-16T06:51:57.833Z,86.45
2023-02-16T06:54:24.987Z,85.95
2023-02-16T06:56:52.181Z,67.53
2023-02-16T06:59:19.396Z,82.45
2023-02-16T07:01:46.690Z,67.15
2023-02-16T07:04:13.941Z,75.93
2023-02-16T07:06:41.314Z,83.05
2023-02-16T07:09:10.653Z,74.68
2023-02-16T07:11:39.193Z,70.63
2023-02-16T07:14:06.390Z,85.32
2023-02-16T07:16:33.548Z,77.93
2023-02-16T07:19:01.368Z,69.40
2023-02-16T07:21:28.545Z,69.45
2023-02-16T07:23:55.678Z,55.03
2023-02-16T07:26:23.001Z,48.72
2023-02-16T07:28:50.223Z,46.65
2023-02-16T07:31:18.076Z,40.88
2023-02-16T07:33:45.590Z,38.25
2023-02-16T07:36:13.114Z,35.70
2023-02-16T07:38:42.200Z,31.05
2023-02-16T07:41:10.502Z,32.03
2023-02-16T07:43:39.161Z,31.40
2023-02-16T07:46:06.709Z,35.38
2023-02-16T07:48:34.064Z,29.65
2023-02-16T07:51:01.810Z,33.17
2023-02-16T07:53:28.987Z,31.27
2023-02-16T07:55:57.129Z,29.70
2023-02-16T07:58:27.498Z,32.08
2023-02-16T08:00:58.634Z,31.38
2023-02-16T08:03:25.894Z,28.05
2023-02-16T08:05:53.507Z,29.63
2023-02-16T08:08:20.682Z,34.15
2023-02-16T08:10:48.077Z,36.60
2023-02-16T08:13:15.509Z,28.75
2023-02-16T08:15:45.807Z,38.30
2023-02-16T08:18:13.021Z,35.63
2023-02-16T08:21:01.461Z,34.90
2023-02-16T08:23:27.407Z,34.63
2023-02-16T08:25:54.694Z,31.27
2023-02-16T08:28:22.145Z,24.92
2023-02-16T08:30:49.821Z,24.42
2023-02-16T08:33:17.561Z,18.70
2023-02-16T08:35:45.226Z,17.55
2023-02-16T08:38:12.446Z,18.80
2023-02-16T08:40:39.578Z,17.13
2023-02-16T08:43:07.390Z,15.90
2023-02-16T08:45:34.669Z,13.30
2023-02-16T08:48:02.512Z,14.07
2023-02-16T08:50:29.645Z,15.70
2023-02-16T08:52:58.335Z,16.08
2023-02-16T08:55:25.533Z,13.77
2023-02-16T08:57:52.667Z,15.27
2023-02-16T09:00:35.452Z,14.75
2023-02-16T09:03:04.355Z,16.38
2023-02-16T09:05:31.786Z,14.13
2023-02-16T09:07:59.334Z,13.32
2023-02-16T09:10:27.267Z,17.13
2023-02-16T09:12:54.546Z,16.42
2023-02-16T09:15:22.672Z,14.50
2023-02-16T09:17:49.778Z,15.68
2023-02-16T09:20:17.536Z,17.88
2023-02-16T09:22:47.218Z,14.27
2023-02-16T09:25:15.698Z,15.52
2023-02-16T09:27:43.358Z,14.90
2023-02-16T09:30:11.117Z,14.20
2023-02-16T09:32:38.537Z,13.35
2023-02-16T09:35:05.941Z,15.73
2023-02-16T09:37:33.826Z,16.92
2023-02-16T09:40:00.996Z,14.43
2023-02-16T09:42:43.486Z,14.07
2023-02-16T09:45:16.227Z,17.00
2023-02-16T09:47:45.371Z,16.57
2023-02-16T09:50:38.379Z,14.18
2023-02-16T09:53:08.747Z,12.95
2023-02-16T09:55:47.607Z,13.73
2023-02-16T09:58:28.226Z,13.10
2023-02-16T10:00:58.612Z,19.63
2023-02-16T10:03:41.443Z,12.52
2023-02-16T10:06:14.661Z,12.77
2023-02-16T10:08:47.763Z,12.93
2023-02-16T10:11:43.512Z,13.60
2023-02-16T10:14:25.975Z,13.60
2023-02-16T10:16:56.462Z,16.08
2023-02-16T10:19:29.243Z,16.48
2023-02-16T10:21:59.317Z,16.40
2023-02-16T10:24:28.738Z,13.88
2023-02-16T10:27:02.334Z,14.57
2023-02-16T10:32:03.148Z,15.18
2023-02-16T10:34:40.759Z,17.27
2023-02-16T10:37:16.928Z,12.73
2023-02-16T10:39:49.110Z,15.73
2023-02-16T10:42:25.906Z,14.65
2023-02-16T10:44:59.004Z,14.02
2023-02-16T10:47:40.539Z,17.08
2023-02-16T10:50:09.070Z,14.30
2023-02-16T10:52:40.363Z,13.77
2023-02-16T10:55:07.558Z,16.92
2023-02-16T10:57:34.747Z,14.20
2023-02-16T11:00:03.626Z,16.45
2023-02-16T11:02:45.124Z,16.38
2023-02-16T11:05:36.368Z,15.88
2023-02-16T11:08:03.800Z,19.17
2023-02-16T11:10:37.209Z,15.93
2023-02-16T11:13:04.721Z,15.02
2023-02-16T11:15:32.466Z,15.50
2023-02-16T11:18:01.006Z,15.50
2023-02-16T11:20:36.850Z,16.52
2023-02-16T11:23:23.069Z,17.23
2023-02-16T11:26:09.098Z,15.65
2023-02-16T11:28:38.387Z,18.88
2023-02-16T11:31:12.202Z,17.70
2023-02-16T11:33:40.932Z,17.90
2023-02-16T11:36:29.254Z,15.75
2023-02-16T11:39:04.609Z,17.33
2023-02-16T11:41:33.641Z,20.25
2023-02-16T11:44:02.040Z,22.63
2023-02-16T11:46:31.229Z,18.33
2023-02-16T11:49:18.436Z,14.57
2023-02-16T11:51:46.062Z,15.45
2023-02-16T11:54:17.269Z,14.65
2023-02-16T11:56:46.405Z,12.93
2023-02-16T11:59:17.039Z,16.02
2023-02-16T12:02:04.662Z,14.57
2023-02-16T12:04:42.359Z,16.15
2023-02-16T12:07:19.291Z,13.57
2023-02-16T12:09:58.294Z,13.63
2023-02-16T12:12:44.510Z,13.98
2023-02-16T12:15:31.670Z,14.80
2023-02-16T12:18:22.473Z,14.65
2023-02-16T12:21:08.752Z,19.02
2023-02-16T12:23:41.528Z,13.55
2023-02-16T12:26:22.587Z,13.93
2023-02-16T12:29:01.515Z,13.05
2023-02-16T12:31:35.183Z,15.48
2023-02-16T12:34:10.755Z,14.63
2023-02-16T12:36:52.336Z,12.60
2023-02-16T12:39:19.575Z,11.82
2023-02-16T12:41:49.935Z,11.52
2023-02-16T12:44:20.164Z,13.55
2023-02-16T12:46:49.203Z,12.07
2023-02-16T12:49:16.476Z,14.18
2023-02-16T12:51:46.821Z,12.60
2023-02-16T12:54:20.876Z,12.38
2023-02-16T12:56:55.686Z,16.60
2023-02-16T12:59:25.194Z,17.17
2023-02-16T13:01:53.615Z,16.70
2023-02-16T13:04:39.710Z,14.32
2023-02-16T13:07:27.212Z,19.05
2023-02-16T13:10:14.704Z,22.40
2023-02-16T13:12:50.679Z,13.50
2023-02-16T13:15:20.708Z,14.68
2023-02-16T13:17:56.927Z,16.02
2023-02-16T13:20:24.835Z,14.73
2023-02-16T13:23:13.109Z,13.70
2023-02-16T13:25:58.081Z,12.68
2023-02-16T13:28:40.783Z,13.70
2023-02-16T13:31:08.135Z,12.43
2023-02-16T13:33:53.698Z,20.52
2023-02-16T13:36:27.455Z,11.85
2023-02-16T13:39:10.181Z,11.68
2023-02-16T13:41:52.807Z,11.48
2023-02-16T13:44:21.540Z,19.52
2023-02-16T13:46:52.854Z,12.70
2023-02-16T13:49:29.304Z,14.23
2023-02-16T13:51:56.814Z,14.57
2023-02-16T13:54:28.148Z,12.10
2023-02-16T13:56:55.491Z,14.32
2023-02-16T13:59:22.669Z,13.55
2023-02-16T14:01:54.454Z,12.05
2023-02-16T14:04:27.238Z,13.25
2023-02-16T14:07:03.792Z,18.40
2023-02-16T14:09:33.853Z,13.55
2023-02-16T14:12:03.086Z,15.60
2023-02-16T14:14:32.475Z,15.77
2023-02-16T14:17:24.631Z,14.98
2023-02-16T14:20:11.818Z,13.13
2023-02-16T14:22:44.735Z,14.25
2023-02-16T14:25:23.605Z,13.82
2023-02-16T14:27:51.750Z,15.05
2023-02-16T14:30:21.713Z,17.92
2023-02-16T14:33:00.454Z,13.38
2023-02-16T14:35:35.197Z,17.52
2023-02-16T14:38:04.263Z,19.38
2023-02-16T14:40:50.863Z,16.65
2023-02-16T14:43:34.854Z,16.80
2023-02-16T14:46:21.020Z,17.90
2023-02-16T14:49:07.675Z,18.55
2023-02-16T14:51:44.858Z,20.42
2023-02-16T14:54:36.006Z,15.82
2023-02-16T14:57:05.191Z,16.65
2023-02-16T14:59:38.409Z,18.90
2023-02-16T15:02:25.882Z,20.15
2023-02-16T15:04:53.032Z,24.30
2023-02-16T15:07:21.579Z,22.30
2023-02-16T15:09:50.586Z,23.38
2023-02-16T15:12:23.658Z,39.15
2023-02-16T15:14:56.193Z,19.65
2023-02-16T15:17:27.048Z,24.33
2023-02-16T15:19:55.307Z,38.45
2023-02-16T15:22:24.112Z,21.88
2023-02-16T15:24:57.400Z,19.60
2023-02-16T15:27:25.002Z,20.77
2023-02-16T15:30:06.493Z,22.02
2023-02-16T15:32:33.845Z,25.35
2023-02-16T15:35:10.135Z,27.58
2023-02-16T15:37:40.168Z,23.70
2023-02-16T15:40:30.437Z,24.80
2023-02-16T15:43:01.645Z,27.73
2023-02-16T15:45:29.243Z,38.60
2023-02-16T15:48:13.227Z,30.27
2023-02-16T15:50:40.523Z,32.40
2023-02-16T15:53:11.693Z,30.95
2023-02-16T15:55:46.787Z,26.77
2023-02-16T15:58:15.622Z,26.05
2023-02-16T16:00:44.099Z,30.20
2023-02-16T16:03:15.607Z,26.90
2023-02-16T16:05:43.482Z,26.75
2023-02-16T16:08:14.681Z,26.45
2023-02-16T16:10:44.208Z,26.00
2023-02-16T16:13:18.411Z,29.42
2023-02-16T16:15:48.440Z,29.55
2023-02-16T16:18:37.563Z,27.92
2023-02-16T16:21:11.518Z,35.70
2023-02-16T16:23:38.706Z,32.97
2023-02-16T16:26:19.572Z,34.58
2023-02-16T16:28:47.168Z,30.65
2023-02-16T16:31:17.528Z,36.85
2023-02-16T16:33:54.079Z,31.20
2023-02-16T16:36:22.203Z,34.50
2023-02-16T16:38:49.671Z,34.38
2023-02-16T16:41:29.362Z,32.65
2023-02-16T16:43:57.477Z,34.30
2023-02-16T16:46:25.708Z,37.13
2023-02-16T16:48:57.399Z,34.35
2023-02-16T16:51:27.531Z,39.15
2023-02-16T16:53:54.727Z,34.58
2023-02-16T16:56:22.731Z,39.00
2023-02-16T16:58:51.402Z,35.92
2023-02-16T17:01:19.954Z,35.88
2023-02-16T17:03:47.394Z,38.05
2023-02-16T17:06:14.796Z,36.35
2023-02-16T17:08:42.430Z,39.22
2023-02-16T17:11:13.662Z,33.78
2023-02-16T17:13:40.801Z,41.33
2023-02-16T17:16:11.555Z,32.47
2023-02-16T17:18:39.728Z,35.55
2023-02-16T17:21:06.865Z,35.72
2023-02-16T17:23:34.278Z,33.60
2023-02-16T17:26:01.535Z,33.22
2023-02-16T17:28:28.916Z,33.63
2023-02-16T17:30:56.337Z,35.67
2023-02-16T17:33:23.524Z,38.17
2023-02-16T17:35:50.650Z,34.45
2023-02-16T17:38:19.719Z,36.15
2023-02-16T17:40:50.671Z,33.90
2023-02-16T17:43:18.375Z,48.30
2023-02-16T17:45:45.796Z,56.40
2023-02-16T17:48:28.488Z,53.05
2023-02-16T17:50:55.882Z,44.97
2023-02-16T17:53:25.159Z,54.45
2023-02-16T17:55:53.423Z,48.13
2023-02-16T17:58:21.283Z,76.82
2023-02-16T18:00:48.511Z,65.25
2023-02-16T18:03:15.794Z,71.18
2023-02-16T18:05:42.979Z,77.75
2023-02-16T18:08:11.328Z,57.03
2023-02-16T18:10:46.123Z,46.83
2023-02-16T18:13:13.844Z,61.72
2023-02-16T18:15:42.205Z,60.92
2023-02-16T18:18:10.202Z,51.17
2023-02-16T18:20:37.778Z,55.55
2023-02-16T18:23:06.119Z,45.28
2023-02-16T18:25:33.455Z,48.95
2023-02-16T18:28:00.908Z,64.05
2023-02-16T18:30:28.463Z,53.75
2023-02-16T18:32:55.935Z,49.42
2023-02-16T18:35:23.197Z,51.58
2023-02-16T18:37:50.437Z,66.05
2023-02-16T18:40:19.848Z,60.33
2023-02-16T18:42:47.614Z,50.72
2023-02-16T18:45:14.828Z,54.25
2023-02-16T18:47:42.708Z,51.55
2023-02-16T18:50:10.065Z,44.63
2023-02-16T18:52:37.228Z,44.85
2023-02-16T18:55:04.680Z,54.63
2023-02-16T18:57:32.186Z,49.17
2023-02-16T18:59:59.453Z,50.67
2023-02-16T19:02:26.860Z,48.20
2023-02-16T19:04:54.067Z,46.17
2023-02-16T19:07:21.300Z,48.85
2023-02-16T19:09:48.815Z,45.95
2023-02-16T19:12:16.291Z,60.50
2023-02-16T19:14:43.458Z,68.15
2023-02-16T19:17:10.641Z,68.28
2023-02-16T19:19:38.414Z,68.53
2023-02-16T19:22:05.629Z,75.85
2023-02-16T19:24:33.231Z,66.40
2023-02-16T19:27:00.627Z,72.50
2023-02-16T19:29:27.885Z,65.95
2023-02-16T19:31:55.155Z,75.15
2023-02-16T19:34:22.485Z,69.15
2023-02-16T19:36:49.656Z,74.25
2023-02-16T19:39:16.829Z,74.90
2023-02-16T19:41:44.127Z,67.47
2023-02-16T19:44:14.560Z,71.72
2023-02-16T19:46:42.319Z,69.20
2023-02-16T19:49:09.898Z,58.88
2023-02-16T19:51:37.097Z,45.63
2023-02-16T19:54:04.294Z,46.67
2023-02-16T19:56:31.504Z,47.55
2023-02-16T19:58:59.318Z,51.38
2023-02-16T20:01:27.167Z,46.47
2023-02-16T20:03:54.901Z,57.75
2023-02-16T20:06:23.578Z,55.42
2023-02-16T20:08:51.617Z,50.92
2023-02-16T20:11:19.986Z,56.13
2023-02-16T20:13:47.261Z,50.67
2023-02-16T20:16:15.052Z,55.60
2023-02-16T20:18:42.565Z,54.35
2023-02-16T20:21:12.224Z,55.05
2023-02-16T20:23:39.904Z,53.03
2023-02-16T20:26:08.021Z,54.58
2023-02-16T20:28:35.522Z,58.67
2023-02-16T20:31:03.105Z,50.72
2023-02-16T20:33:30.356Z,50.58
2023-02-16T20:35:57.538Z,47.42
2023-02-16T20:38:24.698Z,53.28
2023-02-16T20:40:52.228Z,52.47
2023-02-16T20:43:20.992Z,44.20
2023-02-16T20:45:48.487Z,44.83
2023-02-16T20:48:16.674Z,41.53
2023-02-16T20:50:43.836Z,39.17
2023-02-16T20:53:10.980Z,35.30
2023-02-16T20:55:38.150Z,40.17
2023-02-16T20:58:05.388Z,37.63
2023-02-16T21:00:32.472Z,35.47
2023-02-16T21:03:00.305Z,40.20
2023-02-16T21:05:27.558Z,41.65
2023-02-16T21:07:54.703Z,35.58
2023-02-16T21:10:21.929Z,37.88
2023-02-16T21:12:49.185Z,36.70
2023-02-16T21:15:16.365Z,34.25
2023-02-16T21:17:43.602Z,37.60
2023-02-16T21:20:11.020Z,38.20
2023-02-16T21:22:38.471Z,39.28
2023-02-16T21:25:06.046Z,36.08
2023-02-16T21:27:33.236Z,36.20
2023-02-16T21:30:00.726Z,37.58
2023-02-16T21:32:27.999Z,36.30
2023-02-16T21:34:55.215Z,38.05
2023-02-16T21:37:22.405Z,35.40
2023-02-16T21:40:08.225Z,35.65
2023-02-16T21:42:35.665Z,38.58
2023-02-16T21:45:15.216Z,37.75
2023-02-16T21:48:02.427Z,36.50
2023-02-16T21:50:31.004Z,38.33
2023-02-16T21:52:59.837Z,39.33
2023-02-16T21:55:46.553Z,33.13
2023-02-16T21:58:13.936Z,32.63
2023-02-16T22:00:41.621Z,34.00
2023-02-16T22:03:09.558Z,31.23
2023-02-16T22:05:37.100Z,30.13
2023-02-16T22:08:04.562Z,30.63
2023-02-16T22:10:31.713Z,29.48
2023-02-16T22:12:59.006Z,31.25
2023-02-16T22:15:26.446Z,29.98
2023-02-16T22:17:54.020Z,28.58
2023-02-16T22:20:24.741Z,32.10
2023-02-16T22:22:54.977Z,29.15
2023-02-16T22:25:23.145Z,25.88
2023-02-16T22:27:51.446Z,27.30
2023-02-16T22:30:19.038Z,26.40
2023-02-16T22:32:46.239Z,28.17
2023-02-16T22:35:13.636Z,25.40
2023-02-16T22:37:40.765Z,28.88
2023-02-16T22:40:08.157Z,27.27
2023-02-16T22:42:36.243Z,25.83
2023-02-16T22:45:03.674Z,28.27
2023-02-16T22:47:31.369Z,27.23
2023-02-16T22:49:59.005Z,24.75
2023-02-16T22:52:26.147Z,26.48
2023-02-16T22:54:53.380Z,23.33
2023-02-16T22:57:20.541Z,25.90
2023-02-16T22:59:47.736Z,26.98
2023-02-16T23:02:14.932Z,27.73
2023-02-16T23:04:43.322Z,22.55
2023-02-16T23:07:10.627Z,23.40
2023-02-16T23:09:37.782Z,24.02
2023-02-16T23:12:05.126Z,26.50
2023-02-16T23:14:32.304Z,23.23
2023-02-16T23:16:59.536Z,22.40
2023-02-16T23:19:27.282Z,23.35
2023-02-16T23:21:54.925Z,24.23
2023-02-16T23:24:23.193Z,22.00
2023-02-16T23:26:50.843Z,20.52
2023-02-16T23:29:18.451Z,22.48
2023-02-16T23:31:49.560Z,21.00
2023-02-16T23:34:17.998Z,21.63
2023-02-16T23:36:45.282Z,24.45
2023-02-16T23:39:14.000Z,23.45
2023-02-16T23:41:41.478Z,20.95
2023-02-16T23:44:09.427Z,23.60
2023-02-16T23:46:37.232Z,23.17
2023-02-16T23:49:04.575Z,22.40
2023-02-16T23:51:31.824Z,21.17
2023-02-16T23:53:58.968Z,22.70
2023-02-16T23:56:27.581Z,20.13
2023-02-16T23:58:57.923Z,22.25
